New Orleans, Louisiana
Current Conditions -  °F | °C
As of 9:55 PM on Sunday 23 Nov 2014 (Local Time) from KVSH Reporting Station
Overcast Overcast  
Wind Chill: 21°   Ceiling: 400
Heat Index: 21°   Visibility: 10mi
Dew Point: 18°   Wind: 9mph
Humidity: 83%   Direction: 180°S
Pressure: 29.75"   Gusts: NA
Location:  29.95°N, 90.08°W
Report Text: KVSH 240355Z AUTO 18008KT 10SM OVC004 21/18 A2975 RMK AO1
Loading
Personal Weather Stations






























Interactive Weather Map New forecast layout! Learn more

10-Day Weather Forecast

Advertisements
Track Severe Weather on mobile